Fourchu: Past 24 Hour Conditions

 

Natashquan Airport

09:00 PM EST 27 November 2014
This table is a summary of hourly weather conditions for the past 24 hours.
Date / Time
(EST)
Wind(knots) Conditions Visibility(km) Pressure(kPa) Air tempC) Relative humidity(%) Dew pointC) Wind Chill
27 November 2014
21:00 NNE 21 gust 29 Cloudy 15 100.9 -8 74 -12 -18
20:00 N 22 gust 28 Light Snow 15 101.0 -8 75 -12 -18
19:00 N 19 gust 28 Light Snow 13 100.9 -7 76 -11 -17
18:00 N 21 gust 29 Light Snow 5 100.8 -7 80 -10 -17
17:00 N 18 gust 28 Light Snow 3 100.7 -7 84 -10 -17
16:00 N 21 gust 29 Light Snow 2 100.6 -7 84 -10 -17
15:00 N 21 gust 30 Light Snow 2 100.5 -7 86 -9 -17
14:00 N 22 gust 29 Light Snow 1 100.4 -7 88 -9 -17
13:00 N 20 gust 29 Snow 0.6 100.5 -7 90 -8 -16
12:00 NNE 22 gust 28 Light Snow 2 100.5 -7 86 -8 -16
11:00 NNE 18 gust 26 Light Snow 8 100.7 -6 81 -9 -15
10:00 NNE 18 gust 25 Light Snow 4 100.8 -6 86 -8 -15
9:00 NE 16 gust 22 Light Snow 5 101.0 -6 86 -8 -15
8:00 NE 15 gust 22 Light Snow 3 101.2 -7 88 -8 -15
7:00 NNE 15 gust 22 Light Snow 2 101.3 -7 89 -8 -15
6:00 NNE 10 gust 16 Light Snow 2 101.5 -7 91 -8 -13
5:00 NNE 11 gust 18 Light Snow 2 101.7 -6 90 -8 -13
4:00 NE 12 Light Snow 5 101.8 -5 77 -9 -12
3:00 NNE 10 gust 15 Cloudy 16 101.8 -4 65 -10 -10
2:00 NNE 8 Cloudy 16 101.9 -4 65 -10 -9
1:00 NE 9 Cloudy 16 102.0 -4 64 -10 -10
0:00 NE 9 Cloudy 16 102.1 -4 64 -10 -9
26 November 2014
23:00 NE 8 Cloudy 16 102.1 -4 66 -9 -9
22:00 N 7 Cloudy 16 102.1 -3 65 -9 -8
21:00 NNE 6 Cloudy 16 102.2 -3 62 -9 -7
 
Map of Atlantic - Newfoundland marine weather areas Southwestern Grand Banks - 44138 Banquereau - 44139 Tail of the Bank - 44140 Nickerson Bank - 44251 Northeast Burgeo Bank - 44255 Blanc-Sablon Airport Cap Whittle Chevery Natashquan Airport Heath Point Miscou Island Grand Étang Ingonish Beach North Mountain St.Paul Island J.A. Douglas McCurdy Sydney Airport Charlottetown Airport East Point North Cape Argentia Bonavista Burgeo Cape Race Corner Brook Daniel's Harbour Englee Ferolle Point La Scie Port aux Basques Rocky Harbour Sagona Island St. Anthony Airport St. John's Int'l Airport St. Lawrence Stephenville Airport Twillingate Winterland Wreckhouse Cartwright Airport Mary's Harbour Grates Cove Pool's Island Marticot Island Long Pond Îles de la Madeleine Airport
Legend: buoyBuoy land stationLand Station